Home > Products > Valid Products > MTR

000
SAUS46 KPQR 250653
MTRREO
METAR KREO 250652Z AUTO 22004KT 11/06 A2995 RMK AO1 SLP120 T01060056





000
SAUS46 KPQR 250553
MTRREO
METAR KREO 250552Z AUTO 14006KT 12/05 A2993 RMK AO1 SLP117 T01170050
10189 20111 51013





000
SAUS46 KPQR 250453
MTRREO
METAR KREO 250452Z AUTO 15005KT 12/04 A2993 RMK AO1 SLP118 T01170044





000
SAUS46 KPQR 250053
MTRREO
METAR KREO 250052Z AUTO 34007KT 18/M01 A2988 RMK AO1 SLP104
T01781006





000
SAUS46 KPQR 242053
MTRREO
METAR KREO 242052Z AUTO 30012G18KT 18/02 A2988 RMK AO1 PK WND
29026/1957 SLP103 T01830017 53003





000
SAUS46 KPQR 241936
MTRREO
SPECI KREO 241934Z AUTO 29020G26KT 15/03 A2989 RMK AO1 PK WND
28026/1933 WSHFT 1917 T01500028





000
SAUS46 KPQR 241853
MTRREO
METAR KREO 241852Z AUTO 00000KT 19/01 A2987 RMK AO1 SLP097 T01890006





000
SAUS46 KPQR 241453
MTRREO
METAR KREO 241452Z AUTO VRB04KT 12/03 A2989 RMK AO1 SLP104 T01170033





000
SAUS46 KPQR 241253
MTRREO
METAR KREO 241252Z AUTO 14004KT 07/05 A2988 RMK AO1 SLP102 T00720050





000
SAUS46 KPQR 241153
MTRREO
METAR KREO 241152Z AUTO 14004KT 07/05 A2987 RMK AO1 SLP099 T00720050
10083 20067 51001





000
SAUS46 KPQR 240953
MTRREO
METAR KREO 240952Z AUTO 17003KT 08/06 A2987 RMK AO1 SLP097 T00780056





000
SAUS46 KPQR 240553
MTRREO
METAR KREO 240552Z AUTO 14007KT 08/04 A2987 RMK AO1 SLP102 T00830039
10178 20083 51008





000
SAUS46 KPQR 240153
MTRREO
METAR KREO 240152Z AUTO 05008KT 14/03 A2983 RMK AO1 WSHFT 0059
SLP093 T01390033





000
SAUS46 KPQR 240117
MTRREO
SPECI KREO 240116Z AUTO 02012KT 15/02 A2983 RMK AO1 WSHFT 0059
T01500017





000
SAUS46 KPQR 240053
MTRREO
METAR KREO 240052Z AUTO 31012KT 17/00 A2983 RMK AO1 SLP093 T01670000





000
SAUS46 KPQR 232353
MTRREO
METAR KREO 232352Z AUTO 17/M03 A2983 RMK AO1 SLP094 T01721028 10194
20139 58009





000
SAUS46 KPQR 231953
MTRREO
METAR KREO 231952Z AUTO 14008KT 16/M02 A2988 RMK AO1 SLP110
T01561017





000
SAUS46 KPQR 231853
MTRREO
METAR KREO 231852Z AUTO 23007KT 190V250 16/01 A2989 RMK AO1 SLP112
T01610006





000
SAUS46 KPQR 231653
MTRREO
METAR KREO 231652Z AUTO 18007KT 13/01 A2991 RMK AO1 SLP122 T01330011





000
SAUS46 KPQR 231453
MTRREO
METAR KREO 231452Z AUTO 00000KT 09/01 A2993 RMK AO1 SLP125 T00940011
53003





000
SAUS46 KPQR 231257 COR
MTRREO
METAR KREO 231252Z AUTO 16005KT 02/M01 A2992 RMK AO1 SLP133
T00171006





000
SAUS46 KPQR 231255 COR
MTRREO
METAR KREO 231252Z AUTO 16005KT 02/M01 A2992 RMK AO1 SLP133
T00171006





000
SAUS46 KPQR 231254 COR
MTRREO
METAR KREO 231252Z AUTO 16005KT 02/M01 A2992 RMK AO1 SLP133
T00171006





000
SAUS46 KPQR 231253
MTRREO
METAR KREO 231252Z AUTO 16005KT 02/M01 A2992 RMK AO1 SLP133
T00171006





000
SAUS46 KPQR 231153
MTRREO
METAR KREO 231152Z AUTO 14003KT 02/00 A2992 RMK AO1 SLP129 70003
T00220000 10061 20017 58002 $





000
SAUS46 KPQR 231053
MTRREO
METAR KREO 231052Z AUTO 19004KT 03/01 A2993 RMK AO1 SLP128 T00330011
$





000
SAUS46 KPQR 230853
MTRREO
METAR KREO 230852Z AUTO 15004KT 05/02 A2993 RMK AO1 SLP127 T00500022
$





000
SAUS46 KPQR 230653
MTRREO
METAR KREO 230652Z AUTO 15008KT 05/03 A2994 RMK AO1 SLP134 T00500028





000
SAUS46 KPQR 230553
MTRREO
METAR KREO 230552Z AUTO 14007KT 06/04 A2995 RMK AO1 SLP136 60002
T00610039 10150 20061 50003





000
SAUS46 KPQR 230453
MTRREO
METAR KREO 230452Z AUTO 14008KT 07/04 A2995 RMK AO1 SLP137 T00670044





000
SAUS46 KPQR 230156 COR
MTRREO
METAR KREO 230152Z AUTO 31004KT 13/02 A2993 RMK AO1 WSHFT 0057
SLP129 T01330017





000
SAUS46 KPQR 230155 COR
MTRREO
METAR KREO 230152Z AUTO 31004KT 13/02 A2993 RMK AO1 WSHFT 0057
SLP129 T01330017





000
SAUS46 KPQR 230154 COR
MTRREO
METAR KREO 230152Z AUTO 31004KT 13/02 A2993 RMK AO1 WSHFT 0057
SLP129 T01330017





000
SAUS46 KPQR 230119 COR
MTRREO
SPECI KREO 230114Z AUTO 32010KT 12/03 A2994 RMK AO1 WSHFT 0057
T01220033





000
SAUS46 KPQR 230116 COR
MTRREO
SPECI KREO 230114Z AUTO 32010K *2/03 A2994 RMK AO1 WSHFT 0057
T01220033





000
SAUS46 KPQR 230106
MTRREO
SPECI KREO 230105Z AUTO 30013KT 12/03 A2994 RMK AO1 WSHFT 0048
T01170033





000
SAUS46 KPQR 230053
MTRREO
METAR KREO 230052Z AUTO 21014KT 13/02 A2994 RMK AO1 SLP135 T01280022





000
SAUS46 KPQR 222353
MTRREO
METAR KREO 222352Z AUTO 22020G25KT 14/01 A2993 RMK AO1 SLP131
T01390006 10161 20117 56008





000
SAUS46 KPQR 221753
MTRREO
METAR KREO 221752Z AUTO 22012KT 12/03 A2998 RMK AO1 SLP148 60001
T01170028 10117 20044 58003





000
SAUS46 KPQR 221453
MTRREO
METAR KREO 221452Z AUTO 18008KT 07/04 A2999 RMK AO1 SLP152 60001
T00720044 51008





000
SAUS46 KPQR 221253
MTRREO
METAR KREO 221252Z AUTO 00000KT 05/03 A2998 RMK AO1 SLP148 T00500033





000
SAUS46 KPQR 221153
MTRREO
METAR KREO 221152Z AUTO 18005KT 04/02 A2996 RMK AO1 SLP146 T00440022
10072 20028 53003





000
SAUS46 KPQR 220953
MTRREO
METAR KREO 220952Z AUTO 21005KT 04/02 A2996 RMK AO1 SLP142 T00440022





    US Dept of Commerce
    National Oceanic and Atmospheric Administration
    National Weather Service
    1325 East West Highway
    Silver Spring, MD 20910
    Page Author: NWS Internet Services Team
Disclaimer
Information Quality
Credits
Glossary
Privacy Policy
Freedom of Information Act (FOIA)
About Us
Career Opportunities